createdAt,value
2023-05-01T00:00:54.879Z,82.8
2023-05-01T00:03:55.019Z,83.3
2023-05-01T00:06:54.990Z,83.7
2023-05-01T00:09:54.930Z,83.9
2023-05-01T00:12:54.816Z,83.9
2023-05-01T00:15:54.831Z,84.2
2023-05-01T00:18:54.820Z,84.3
2023-05-01T00:21:54.950Z,84.3
2023-05-01T00:24:54.834Z,84.2
2023-05-01T00:27:54.841Z,84.6
2023-05-01T00:30:54.864Z,84.7
2023-05-01T00:33:54.862Z,84.9
2023-05-01T00:36:54.880Z,85
2023-05-01T00:39:55.012Z,85.2
2023-05-01T00:42:54.855Z,85.6
2023-05-01T00:45:54.894Z,85.6
2023-05-01T00:48:54.872Z,85.5
2023-05-01T00:51:54.960Z,85.4
2023-05-01T00:54:54.877Z,85.3
2023-05-01T00:57:54.889Z,85.3
2023-05-01T01:00:54.904Z,85.4
2023-05-01T01:03:54.956Z,85.8
2023-05-01T01:06:54.885Z,86.1
2023-05-01T01:09:55.088Z,86.3
2023-05-01T01:12:54.900Z,86.4
2023-05-01T01:15:54.928Z,86.8
2023-05-01T01:18:54.950Z,86.8
2023-05-01T01:21:54.908Z,87
2023-05-01T01:24:54.961Z,87.4
2023-05-01T01:27:54.924Z,87.6
2023-05-01T01:30:54.978Z,87.8
2023-05-01T01:33:54.934Z,87.8
2023-05-01T01:36:54.935Z,87.9
2023-05-01T01:39:55.087Z,88
2023-05-01T01:42:54.952Z,88.2
2023-05-01T01:45:54.965Z,88.3
2023-05-01T01:48:54.949Z,88.5
2023-05-01T01:51:54.963Z,88.5
2023-05-01T01:54:54.967Z,88.4
2023-05-01T01:57:54.962Z,88.5
2023-05-01T02:00:54.981Z,88.6
2023-05-01T02:03:55.005Z,88.7
2023-05-01T02:06:54.983Z,88.8
2023-05-01T02:09:55.201Z,88.6
2023-05-01T02:12:54.996Z,88.5
2023-05-01T02:15:55.053Z,88.9
2023-05-01T02:18:55.002Z,88.9
2023-05-01T02:21:55.008Z,88.9
2023-05-01T02:24:55.014Z,88.8
2023-05-01T02:27:55.009Z,88.5
2023-05-01T02:30:55.020Z,88.5
2023-05-01T02:33:55.015Z,88.8
2023-05-01T02:36:55.016Z,88.8
2023-05-01T02:39:55.273Z,88.7
2023-05-01T02:42:55.041Z,88.8
2023-05-01T02:45:55.178Z,88.9
2023-05-01T02:48:55.044Z,89.1
2023-05-01T02:51:55.052Z,89.2
2023-05-01T02:54:55.055Z,89.3
2023-05-01T02:57:55.063Z,89.3
2023-05-01T03:00:55.108Z,89.5
2023-05-01T03:03:55.155Z,89.7
2023-05-01T03:06:55.086Z,89.7
2023-05-01T03:09:55.269Z,89.6
2023-05-01T03:12:55.080Z,89.6
2023-05-01T03:15:55.167Z,89.6
2023-05-01T03:18:55.095Z,89.8
2023-05-01T03:21:55.109Z,89.9
2023-05-01T03:24:55.098Z,90
2023-05-01T03:27:55.398Z,90.3
2023-05-01T03:30:55.105Z,90.4
2023-05-01T03:33:55.110Z,90.4
2023-05-01T03:36:55.119Z,90.5
2023-05-01T03:39:55.283Z,90.6
2023-05-01T03:42:55.117Z,90.7
2023-05-01T03:45:55.137Z,90.8
2023-05-01T03:48:55.142Z,90.8
2023-05-01T03:51:55.136Z,90.8
2023-05-01T03:54:55.140Z,90.9
2023-05-01T03:57:55.147Z,91
2023-05-01T04:00:55.144Z,91
2023-05-01T04:03:55.302Z,91.1
2023-05-01T04:06:55.165Z,91.1
2023-05-01T04:09:55.296Z,91
2023-05-01T04:12:55.172Z,90.6
2023-05-01T04:15:55.264Z,90.3
2023-05-01T04:18:55.177Z,89.9
2023-05-01T04:21:55.192Z,89.4
2023-05-01T04:24:55.188Z,89
2023-05-01T04:27:55.191Z,88.5
2023-05-01T04:30:55.192Z,88.1
2023-05-01T04:33:55.197Z,87.6
2023-05-01T04:36:55.194Z,87.2
2023-05-01T04:39:55.398Z,86.7
2023-05-01T04:42:55.212Z,86.2
2023-05-01T04:45:55.210Z,85.7
2023-05-01T04:48:55.213Z,85.3
2023-05-01T04:51:55.218Z,84.8
2023-05-01T04:54:55.218Z,84.4
2023-05-01T04:57:55.234Z,84
2023-05-01T05:00:55.244Z,83.5
2023-05-01T05:03:55.363Z,82.8
2023-05-01T05:06:55.256Z,82.3
2023-05-01T05:09:55.530Z,81.7
2023-05-01T05:12:55.251Z,81.1
2023-05-01T05:15:55.325Z,80.5
2023-05-01T05:18:55.263Z,80
2023-05-01T05:21:55.266Z,79.6
2023-05-01T05:24:55.265Z,79.1
2023-05-01T05:27:55.269Z,78.9
2023-05-01T05:30:55.274Z,78.5
2023-05-01T05:33:55.280Z,78.4
2023-05-01T05:36:55.299Z,78.1
2023-05-01T05:39:55.459Z,78
2023-05-01T05:42:55.296Z,78
2023-05-01T05:45:55.325Z,77.7
2023-05-01T05:48:55.306Z,77.2
2023-05-01T05:51:55.307Z,75.9
2023-05-01T05:54:55.313Z,74.9
2023-05-01T05:57:55.324Z,73.7
2023-05-01T06:00:55.329Z,72.7
2023-05-01T06:03:55.345Z,72.1
2023-05-01T06:06:55.352Z,71.9
2023-05-01T06:09:55.486Z,71.6
2023-05-01T06:12:55.730Z,71
2023-05-01T06:15:55.386Z,70.5
2023-05-01T06:18:55.339Z,70.3
2023-05-01T06:21:55.362Z,70
2023-05-01T06:24:55.479Z,69.5
2023-05-01T06:27:55.368Z,68.1
2023-05-01T06:30:55.386Z,67.6
2023-05-01T06:33:55.373Z,66.7
2023-05-01T06:36:55.367Z,66.2
2023-05-01T06:39:55.588Z,65.4
2023-05-01T06:42:55.384Z,64.1
2023-05-01T06:45:55.399Z,64.1
2023-05-01T06:48:55.386Z,63.9
2023-05-01T06:51:55.401Z,62.5
2023-05-01T06:54:55.401Z,61
2023-05-01T06:57:55.403Z,59.4
2023-05-01T07:00:55.567Z,58.1
2023-05-01T07:03:55.408Z,55.6
2023-05-01T07:06:55.420Z,55.8
2023-05-01T07:09:55.528Z,56.2
2023-05-01T07:12:55.424Z,56.4
2023-05-01T07:15:55.483Z,56.8
2023-05-01T07:18:55.427Z,56.8
2023-05-01T07:21:55.446Z,56.5
2023-05-01T07:24:55.444Z,55.4
2023-05-01T07:27:55.445Z,54.6
2023-05-01T07:30:55.460Z,53.6
2023-05-01T07:33:55.462Z,52.7
2023-05-01T07:36:55.460Z,52.7
2023-05-01T07:39:55.587Z,51.7
2023-05-01T07:42:55.467Z,51.6
2023-05-01T07:45:55.499Z,51.1
2023-05-01T07:48:55.474Z,50.5
2023-05-01T07:51:55.481Z,49.4
2023-05-01T07:54:55.474Z,48.6
2023-05-01T07:57:55.481Z,46.8
2023-05-01T08:00:55.478Z,46.8
2023-05-01T08:03:55.537Z,46.7
2023-05-01T08:06:55.569Z,46.7
2023-05-01T08:09:57.079Z,46.1
2023-05-01T08:12:55.511Z,45
2023-05-01T08:15:55.533Z,43.4
2023-05-01T08:18:55.518Z,42.9
2023-05-01T08:21:55.521Z,41.7
2023-05-01T08:24:55.515Z,41.2
2023-05-01T08:27:55.528Z,40.7
2023-05-01T08:30:55.542Z,37.8
2023-05-01T08:33:55.562Z,37.5
2023-05-01T08:36:55.535Z,36.7
2023-05-01T08:39:55.690Z,36.5
2023-05-01T08:42:55.545Z,36.3
2023-05-01T08:45:55.537Z,35.3
2023-05-01T08:48:55.552Z,35.4
2023-05-01T08:51:55.549Z,35.3
2023-05-01T08:54:55.550Z,35.5
2023-05-01T08:57:55.556Z,35
2023-05-01T09:00:55.553Z,35.1
2023-05-01T09:03:55.582Z,35.7
2023-05-01T09:06:55.599Z,35.3
2023-05-01T09:09:55.769Z,35.1
2023-05-01T09:12:55.564Z,35.7
2023-05-01T09:15:55.581Z,36.4
2023-05-01T09:18:55.591Z,37
2023-05-01T09:21:55.591Z,37.1
2023-05-01T09:24:55.597Z,37.1
2023-05-01T09:27:55.591Z,37.8
2023-05-01T09:30:55.608Z,37.7
2023-05-01T09:33:55.618Z,37.2
2023-05-01T09:36:55.636Z,36.8
2023-05-01T09:39:55.772Z,36.1
2023-05-01T09:42:55.664Z,35.9
2023-05-01T09:45:55.707Z,35.7
2023-05-01T09:48:55.658Z,35.9
2023-05-01T09:51:55.661Z,36.5
2023-05-01T09:54:55.676Z,35.6
2023-05-01T09:57:55.679Z,35.5
2023-05-01T10:00:55.709Z,35.3
2023-05-01T10:03:55.973Z,35.4
2023-05-01T10:06:55.774Z,35.5
2023-05-01T10:09:56.599Z,35.1
2023-05-01T10:12:55.716Z,35.1
2023-05-01T10:15:55.704Z,35.1
2023-05-01T10:18:55.701Z,34
2023-05-01T10:21:55.708Z,34
2023-05-01T10:24:55.702Z,34.2
2023-05-01T10:27:55.722Z,33.9
2023-05-01T10:30:55.736Z,34.2
2023-05-01T10:33:55.725Z,34.3
2023-05-01T10:36:55.717Z,34.3
2023-05-01T10:39:55.716Z,34.6
2023-05-01T10:42:55.720Z,34.5
2023-05-01T10:45:55.737Z,33.3
2023-05-01T10:48:55.739Z,34.2
2023-05-01T10:51:55.734Z,33.8
2023-05-01T10:54:55.894Z,33.1
2023-05-01T10:57:55.740Z,33.6
2023-05-01T11:00:55.755Z,32.9
2023-05-01T11:03:55.756Z,33.3
2023-05-01T11:06:55.785Z,33.5
2023-05-01T11:09:55.983Z,33
2023-05-01T11:12:55.772Z,34
2023-05-01T11:15:55.818Z,34.1
2023-05-01T11:18:55.774Z,34.4
2023-05-01T11:21:55.784Z,34
2023-05-01T11:24:55.965Z,33.1
2023-05-01T11:27:55.800Z,32.8
2023-05-01T11:30:55.799Z,32.6
2023-05-01T11:33:55.810Z,32.5
2023-05-01T11:36:55.814Z,33.1
2023-05-01T11:39:55.810Z,32.5
2023-05-01T11:42:56.855Z,32.4
2023-05-01T11:45:55.873Z,33
2023-05-01T11:48:55.837Z,33.3
2023-05-01T11:51:55.841Z,33.7
2023-05-01T11:54:55.844Z,34
2023-05-01T11:57:55.843Z,34.2
2023-05-01T12:00:55.858Z,34.4
2023-05-01T12:03:55.866Z,34.2
2023-05-01T12:06:55.850Z,33.7
2023-05-01T12:09:55.856Z,34.1
2023-05-01T12:12:55.865Z,33.6
2023-05-01T12:15:55.892Z,33.2
2023-05-01T12:18:55.852Z,34.2
2023-05-01T12:21:55.865Z,34
2023-05-01T12:24:56.265Z,32.9
2023-05-01T12:27:55.873Z,32.7
2023-05-01T12:30:55.880Z,33.2
2023-05-01T12:33:55.879Z,33.9
2023-05-01T12:36:55.880Z,33.5
2023-05-01T12:39:55.879Z,33.5
2023-05-01T12:42:55.882Z,33.3
2023-05-01T12:45:55.957Z,32.5
2023-05-01T12:48:55.895Z,32.1
2023-05-01T12:51:55.899Z,33.7
2023-05-01T12:54:56.017Z,33.8
2023-05-01T12:57:55.900Z,34.6
2023-05-01T13:00:55.981Z,33.8
2023-05-01T13:03:55.972Z,33.7
2023-05-01T13:06:55.929Z,34.4
2023-05-01T13:09:56.028Z,34.4
2023-05-01T13:12:55.928Z,33.3
2023-05-01T13:15:56.017Z,33.1
2023-05-01T13:18:55.929Z,33.2
2023-05-01T13:21:55.935Z,34.1
2023-05-01T13:24:55.947Z,33.8
2023-05-01T13:27:55.952Z,34.6
2023-05-01T13:30:55.956Z,34.7
2023-05-01T13:33:55.968Z,34.5
2023-05-01T13:36:55.967Z,34.2
2023-05-01T13:39:56.026Z,34.7
2023-05-01T13:42:55.973Z,35.2
2023-05-01T13:45:56.001Z,35.3
2023-05-01T13:48:55.977Z,36.3
2023-05-01T13:51:55.972Z,36.7
2023-05-01T13:54:56.225Z,34.9
2023-05-01T13:57:55.988Z,36.1
2023-05-01T14:00:55.988Z,35.9
2023-05-01T14:03:56.051Z,36
2023-05-01T14:06:56.089Z,36.5
2023-05-01T14:09:56.056Z,35.7
2023-05-01T14:12:56.007Z,35.7
2023-05-01T14:15:56.022Z,36
2023-05-01T14:18:56.023Z,36.8
2023-05-01T14:21:56.021Z,34.8
2023-05-01T14:24:56.092Z,35
2023-05-01T14:27:56.036Z,35.3
2023-05-01T14:30:56.058Z,35.2
2023-05-01T14:33:56.030Z,34.7
2023-05-01T14:36:56.030Z,35.2
2023-05-01T14:39:56.042Z,35.9
2023-05-01T14:42:56.042Z,34.9
2023-05-01T14:45:56.070Z,34.5
2023-05-01T14:48:56.054Z,35.3
2023-05-01T14:51:56.062Z,34.6
2023-05-01T14:54:56.232Z,35.7
2023-05-01T14:57:56.072Z,36.2
2023-05-01T15:00:56.085Z,37
2023-05-01T15:03:56.130Z,37
2023-05-01T15:06:56.148Z,35.8
2023-05-01T15:09:56.089Z,35.5
2023-05-01T15:12:56.110Z,36.2
2023-05-01T15:15:56.112Z,36.7
2023-05-01T15:18:56.110Z,36.7
2023-05-01T15:21:56.104Z,36.9
2023-05-01T15:24:56.137Z,36.9
2023-05-01T15:27:56.107Z,37.2
2023-05-01T15:30:56.121Z,37
2023-05-01T15:33:56.128Z,35.8
2023-05-01T15:36:56.111Z,35.8
2023-05-01T15:39:56.113Z,35.9
2023-05-01T15:42:56.117Z,35.5
2023-05-01T15:45:56.181Z,36.3
2023-05-01T15:48:56.136Z,36.7
2023-05-01T15:51:56.127Z,37
2023-05-01T15:54:56.135Z,37.7
2023-05-01T15:57:56.117Z,38.2
2023-05-01T16:00:56.152Z,38.4
2023-05-01T16:03:56.208Z,39.2
2023-05-01T16:06:56.122Z,39.7
2023-05-01T16:09:56.276Z,39.4
2023-05-01T16:12:56.114Z,37.7
2023-05-01T16:15:56.147Z,37.8
2023-05-01T16:18:56.140Z,38.4
2023-05-01T16:21:56.127Z,38.7
2023-05-01T16:24:56.131Z,38.4
2023-05-01T16:27:56.129Z,38.3
2023-05-01T16:30:56.151Z,38.2
2023-05-01T16:33:56.139Z,38.8
2023-05-01T16:36:56.138Z,38.9
2023-05-01T16:39:56.185Z,38.1
2023-05-01T16:42:56.146Z,38.9
2023-05-01T16:45:56.181Z,38.8
2023-05-01T16:48:56.141Z,38.5
2023-05-01T16:51:56.168Z,38.3
2023-05-01T16:54:56.140Z,38.9
2023-05-01T16:57:56.133Z,39.4
2023-05-01T17:00:56.145Z,38.6
2023-05-01T17:03:56.215Z,38.6
2023-05-01T17:06:56.342Z,39
2023-05-01T17:09:56.234Z,38.7
2023-05-01T17:12:56.137Z,37.4
2023-05-01T17:15:56.177Z,37.3
2023-05-01T17:18:56.193Z,36.6
2023-05-01T17:21:56.153Z,36.9
2023-05-01T17:24:56.146Z,37
2023-05-01T17:27:56.152Z,36.6
2023-05-01T17:30:56.154Z,36.9
2023-05-01T17:33:56.160Z,36.5
2023-05-01T17:36:57.770Z,36.5
2023-05-01T17:39:56.231Z,36.6
2023-05-01T17:42:56.171Z,36.6
2023-05-01T17:45:56.187Z,37.2
2023-05-01T17:48:56.186Z,37.1
2023-05-01T17:51:56.179Z,36.9
2023-05-01T17:54:56.171Z,37
2023-05-01T17:57:56.177Z,36.9
2023-05-01T18:00:58.303Z,36.7
2023-05-01T18:03:56.615Z,37.1
2023-05-01T18:06:56.443Z,37.4
2023-05-01T18:09:56.359Z,38.3
2023-05-01T18:12:56.171Z,38.5
2023-05-01T18:15:56.258Z,38.9
2023-05-01T18:18:56.179Z,39.5
2023-05-01T18:21:56.179Z,40
2023-05-01T18:24:56.170Z,40.5
2023-05-01T18:27:56.210Z,41
2023-05-01T18:30:56.212Z,41.6
2023-05-01T18:33:56.486Z,42
2023-05-01T18:36:56.202Z,42.6
2023-05-01T18:39:56.305Z,43.3
2023-05-01T18:42:56.202Z,43.8
2023-05-01T18:45:56.249Z,44.2
2023-05-01T18:48:56.201Z,44.6
2023-05-01T18:51:56.186Z,44.9
2023-05-01T18:54:56.195Z,45.4
2023-05-01T18:57:56.183Z,46
2023-05-01T19:00:56.188Z,46.3
2023-05-01T19:03:56.200Z,46.8
2023-05-01T19:06:56.238Z,48
2023-05-01T19:09:56.212Z,48.8
2023-05-01T19:12:56.186Z,49.6
2023-05-01T19:15:56.205Z,50.2
2023-05-01T19:18:56.199Z,51.2
2023-05-01T19:21:56.189Z,51
2023-05-01T19:24:56.202Z,50.7
2023-05-01T19:27:56.204Z,51.3
2023-05-01T19:30:56.203Z,52.2
2023-05-01T19:33:56.203Z,52.4
2023-05-01T19:36:56.198Z,53
2023-05-01T19:39:56.440Z,53.7
2023-05-01T19:42:56.208Z,54.7
2023-05-01T19:45:56.208Z,56.1
2023-05-01T19:48:56.222Z,55.9
2023-05-01T19:51:56.205Z,55.5
2023-05-01T19:54:56.204Z,55.5
2023-05-01T19:57:56.208Z,55.7
2023-05-01T20:00:56.230Z,56.8
2023-05-01T20:03:56.296Z,58.1
2023-05-01T20:06:56.295Z,58.1
2023-05-01T20:09:56.453Z,58.2
2023-05-01T20:12:56.217Z,58.2
2023-05-01T20:15:56.238Z,57.4
2023-05-01T20:18:56.230Z,56.3
2023-05-01T20:21:56.298Z,55.5
2023-05-01T20:24:56.221Z,55.5
2023-05-01T20:27:56.274Z,54.9
2023-05-01T20:30:56.275Z,54.6
2023-05-01T20:33:56.241Z,54.6
2023-05-01T20:36:56.226Z,54.9
2023-05-01T20:39:56.480Z,55.2
2023-05-01T20:42:56.238Z,55.5
2023-05-01T20:45:56.252Z,56.1
2023-05-01T20:48:56.250Z,56.6
2023-05-01T20:51:56.232Z,57.1
2023-05-01T20:54:56.235Z,57.5
2023-05-01T20:57:56.233Z,57.9
2023-05-01T21:00:56.331Z,58.1
2023-05-01T21:03:56.431Z,58.4
2023-05-01T21:06:56.321Z,58.8
2023-05-01T21:09:56.295Z,59
2023-05-01T21:12:56.361Z,59.4
2023-05-01T21:15:56.282Z,59.6
2023-05-01T21:18:56.284Z,59.7
2023-05-01T21:21:56.313Z,60.1
2023-05-01T21:24:56.289Z,60.9
2023-05-01T21:27:56.254Z,60.9
2023-05-01T21:30:56.252Z,61
2023-05-01T21:33:56.274Z,61.8
2023-05-01T21:36:56.258Z,62.4
2023-05-01T21:39:56.312Z,62.7
2023-05-01T21:42:56.439Z,62.8
2023-05-01T21:45:56.259Z,62.9
2023-05-01T21:48:56.273Z,63.4
2023-05-01T21:51:56.261Z,63.2
2023-05-01T21:54:56.267Z,63.3
2023-05-01T21:57:56.266Z,63.6
2023-05-01T22:00:56.291Z,63.9
2023-05-01T22:03:56.293Z,64.7
2023-05-01T22:06:56.268Z,65.5
2023-05-01T22:09:56.552Z,66.5
2023-05-01T22:12:56.265Z,67.2
2023-05-01T22:15:56.270Z,67.4
2023-05-01T22:18:56.288Z,67.4
2023-05-01T22:21:56.276Z,68.1
2023-05-01T22:24:56.273Z,68.5
2023-05-01T22:27:56.274Z,69.5
2023-05-01T22:30:56.275Z,69.2
2023-05-01T22:33:56.307Z,69.2
2023-05-01T22:36:56.284Z,68.3
2023-05-01T22:39:56.300Z,67.8
2023-05-01T22:42:56.294Z,67.4
2023-05-01T22:45:56.296Z,67.9
2023-05-01T22:48:56.307Z,67.7
2023-05-01T22:51:56.287Z,67.9
2023-05-01T22:54:56.302Z,68.2
2023-05-01T22:57:56.301Z,68.8
2023-05-01T23:00:56.298Z,68.8
2023-05-01T23:03:56.419Z,68.9
2023-05-01T23:06:56.307Z,68.8
2023-05-01T23:09:56.317Z,68.5
2023-05-01T23:12:56.309Z,67.9
2023-05-01T23:15:56.350Z,66.7
2023-05-01T23:18:56.322Z,66.3
2023-05-01T23:21:56.305Z,65.7
2023-05-01T23:24:56.310Z,65.8
2023-05-01T23:27:56.328Z,65.8
2023-05-01T23:30:56.323Z,65.6
2023-05-01T23:33:56.352Z,65.6
2023-05-01T23:36:56.324Z,66.1
2023-05-01T23:39:56.321Z,66.5
2023-05-01T23:42:56.321Z,67
2023-05-01T23:45:56.329Z,67.6
2023-05-01T23:48:56.335Z,67.8
2023-05-01T23:51:56.330Z,68
2023-05-01T23:54:56.340Z,67.9
2023-05-01T23:57:56.339Z,68.1
